sensor_id;sensor_type;location;lat;lon;timestamp;P1;durP1;ratioP1;P2;durP2;ratioP2
4486;SDS011;2256;48.740;9.106;2023-04-15T00:01:08;11.80;;;2.60;;
4486;SDS011;2256;48.740;9.106;2023-04-15T00:03:35;13.55;;;2.45;;
4486;SDS011;2256;48.740;9.106;2023-04-15T00:06:02;4.22;;;2.40;;
4486;SDS011;2256;48.740;9.106;2023-04-15T00:08:30;8.18;;;3.15;;
4486;SDS011;2256;48.740;9.106;2023-04-15T00:10:57;9.07;;;3.33;;
4486;SDS011;2256;48.740;9.106;2023-04-15T00:13:26;10.20;;;2.85;;
4486;SDS011;2256;48.740;9.106;2023-04-15T00:15:53;12.68;;;3.25;;
4486;SDS011;2256;48.740;9.106;2023-04-15T00:18:20;6.85;;;3.50;;
4486;SDS011;2256;48.740;9.106;2023-04-15T00:20:47;5.93;;;3.47;;
4486;SDS011;2256;48.740;9.106;2023-04-15T00:23:14;10.25;;;3.25;;
4486;SDS011;2256;48.740;9.106;2023-04-15T00:25:42;4.43;;;2.83;;
4486;SDS011;2256;48.740;9.106;2023-04-15T00:28:10;6.25;;;2.20;;
4486;SDS011;2256;48.740;9.106;2023-04-15T00:30:37;7.25;;;2.78;;
4486;SDS011;2256;48.740;9.106;2023-04-15T00:33:03;8.40;;;3.15;;
4486;SDS011;2256;48.740;9.106;2023-04-15T00:35:30;9.40;;;3.90;;
4486;SDS011;2256;48.740;9.106;2023-04-15T00:38:00;7.13;;;2.90;;
4486;SDS011;2256;48.740;9.106;2023-04-15T00:40:29;8.40;;;2.92;;
4486;SDS011;2256;48.740;9.106;2023-04-15T00:42:57;7.57;;;2.70;;
4486;SDS011;2256;48.740;9.106;2023-04-15T00:45:24;6.25;;;2.35;;
4486;SDS011;2256;48.740;9.106;2023-04-15T00:47:51;14.57;;;2.80;;
4486;SDS011;2256;48.740;9.106;2023-04-15T00:50:18;7.75;;;2.80;;
4486;SDS011;2256;48.740;9.106;2023-04-15T00:52:45;13.38;;;2.95;;
4486;SDS011;2256;48.740;9.106;2023-04-15T00:55:12;9.35;;;2.70;;
4486;SDS011;2256;48.740;9.106;2023-04-15T00:57:40;12.18;;;2.78;;
4486;SDS011;2256;48.740;9.106;2023-04-15T01:00:10;6.60;;;2.78;;
4486;SDS011;2256;48.740;9.106;2023-04-15T01:02:37;14.30;;;2.60;;
4486;SDS011;2256;48.740;9.106;2023-04-15T01:05:04;12.23;;;3.22;;
4486;SDS011;2256;48.740;9.106;2023-04-15T01:07:31;9.75;;;3.00;;
4486;SDS011;2256;48.740;9.106;2023-04-15T01:09:58;5.28;;;2.83;;
4486;SDS011;2256;48.740;9.106;2023-04-15T01:12:26;6.40;;;2.70;;
4486;SDS011;2256;48.740;9.106;2023-04-15T01:14:54;6.72;;;2.30;;
4486;SDS011;2256;48.740;9.106;2023-04-15T01:17:22;9.13;;;2.40;;
4486;SDS011;2256;48.740;9.106;2023-04-15T01:19:50;6.97;;;3.17;;
4486;SDS011;2256;48.740;9.106;2023-04-15T01:22:18;6.50;;;2.95;;
4486;SDS011;2256;48.740;9.106;2023-04-15T01:24:46;6.15;;;2.50;;
4486;SDS011;2256;48.740;9.106;2023-04-15T01:27:21;6.00;;;3.03;;
4486;SDS011;2256;48.740;9.106;2023-04-15T01:29:48;5.22;;;3.00;;
4486;SDS011;2256;48.740;9.106;2023-04-15T01:32:15;4.46;;;2.76;;
4486;SDS011;2256;48.740;9.106;2023-04-15T01:34:41;5.10;;;3.00;;
4486;SDS011;2256;48.740;9.106;2023-04-15T01:37:10;6.57;;;2.70;;
4486;SDS011;2256;48.740;9.106;2023-04-15T01:39:38;14.60;;;3.20;;
4486;SDS011;2256;48.740;9.106;2023-04-15T01:42:05;4.13;;;2.38;;
4486;SDS011;2256;48.740;9.106;2023-04-15T01:44:33;7.25;;;3.03;;
4486;SDS011;2256;48.740;9.106;2023-04-15T01:47:01;12.02;;;3.10;;
4486;SDS011;2256;48.740;9.106;2023-04-15T01:49:28;5.18;;;2.58;;
4486;SDS011;2256;48.740;9.106;2023-04-15T01:51:56;2.85;;;2.40;;
4486;SDS011;2256;48.740;9.106;2023-04-15T01:54:22;11.25;;;2.80;;
4486;SDS011;2256;48.740;9.106;2023-04-15T01:56:49;9.65;;;3.53;;
4486;SDS011;2256;48.740;9.106;2023-04-15T01:59:16;3.20;;;2.63;;
4486;SDS011;2256;48.740;9.106;2023-04-15T02:01:44;8.30;;;2.60;;
4486;SDS011;2256;48.740;9.106;2023-04-15T02:04:11;5.65;;;2.50;;
4486;SDS011;2256;48.740;9.106;2023-04-15T02:06:40;7.47;;;2.80;;
4486;SDS011;2256;48.740;9.106;2023-04-15T02:09:07;4.47;;;2.83;;
4486;SDS011;2256;48.740;9.106;2023-04-15T02:11:34;6.45;;;3.30;;
4486;SDS011;2256;48.740;9.106;2023-04-15T02:14:01;5.97;;;2.92;;
4486;SDS011;2256;48.740;9.106;2023-04-15T02:16:29;9.57;;;3.05;;
4486;SDS011;2256;48.740;9.106;2023-04-15T02:18:58;8.15;;;3.00;;
4486;SDS011;2256;48.740;9.106;2023-04-15T02:21:26;11.50;;;3.10;;
4486;SDS011;2256;48.740;9.106;2023-04-15T02:23:53;8.73;;;3.10;;
4486;SDS011;2256;48.740;9.106;2023-04-15T02:26:20;7.05;;;2.60;;
4486;SDS011;2256;48.740;9.106;2023-04-15T02:28:47;16.77;;;2.75;;
4486;SDS011;2256;48.740;9.106;2023-04-15T02:31:15;6.45;;;2.92;;
4486;SDS011;2256;48.740;9.106;2023-04-15T02:33:42;5.57;;;3.00;;
4486;SDS011;2256;48.740;9.106;2023-04-15T02:36:10;9.73;;;3.08;;
4486;SDS011;2256;48.740;9.106;2023-04-15T02:38:37;7.82;;;3.35;;
4486;SDS011;2256;48.740;9.106;2023-04-15T02:41:07;3.97;;;2.40;;
4486;SDS011;2256;48.740;9.106;2023-04-15T02:43:34;5.70;;;2.80;;
4486;SDS011;2256;48.740;9.106;2023-04-15T02:46:02;9.07;;;3.13;;
4486;SDS011;2256;48.740;9.106;2023-04-15T02:48:29;7.53;;;3.30;;
4486;SDS011;2256;48.740;9.106;2023-04-15T02:51:11;10.10;;;3.03;;
4486;SDS011;2256;48.740;9.106;2023-04-15T02:53:38;5.30;;;3.00;;
4486;SDS011;2256;48.740;9.106;2023-04-15T02:56:06;8.90;;;2.72;;
4486;SDS011;2256;48.740;9.106;2023-04-15T02:58:33;9.52;;;3.10;;
4486;SDS011;2256;48.740;9.106;2023-04-15T03:01:00;6.75;;;2.80;;
4486;SDS011;2256;48.740;9.106;2023-04-15T03:03:28;10.77;;;3.15;;
4486;SDS011;2256;48.740;9.106;2023-04-15T03:05:55;2.80;;;2.50;;
4486;SDS011;2256;48.740;9.106;2023-04-15T03:08:23;3.33;;;2.55;;
4486;SDS011;2256;48.740;9.106;2023-04-15T03:10:50;5.75;;;2.67;;
4486;SDS011;2256;48.740;9.106;2023-04-15T03:13:18;13.80;;;3.80;;
4486;SDS011;2256;48.740;9.106;2023-04-15T03:15:45;6.45;;;3.55;;
4486;SDS011;2256;48.740;9.106;2023-04-15T03:18:12;8.52;;;2.70;;
4486;SDS011;2256;48.740;9.106;2023-04-15T03:20:39;9.27;;;3.03;;
4486;SDS011;2256;48.740;9.106;2023-04-15T03:23:06;12.73;;;2.70;;
4486;SDS011;2256;48.740;9.106;2023-04-15T03:25:34;14.15;;;2.67;;
4486;SDS011;2256;48.740;9.106;2023-04-15T03:28:03;11.65;;;3.05;;
4486;SDS011;2256;48.740;9.106;2023-04-15T03:30:30;9.90;;;2.90;;
4486;SDS011;2256;48.740;9.106;2023-04-15T03:32:57;12.82;;;3.10;;
4486;SDS011;2256;48.740;9.106;2023-04-15T03:35:23;6.78;;;2.90;;
4486;SDS011;2256;48.740;9.106;2023-04-15T03:37:50;9.45;;;3.47;;
4486;SDS011;2256;48.740;9.106;2023-04-15T03:40:17;12.63;;;3.03;;
4486;SDS011;2256;48.740;9.106;2023-04-15T03:42:45;5.95;;;2.92;;
4486;SDS011;2256;48.740;9.106;2023-04-15T03:45:12;7.47;;;2.95;;
4486;SDS011;2256;48.740;9.106;2023-04-15T03:47:39;6.78;;;2.50;;
4486;SDS011;2256;48.740;9.106;2023-04-15T03:50:06;8.88;;;3.40;;
4486;SDS011;2256;48.740;9.106;2023-04-15T03:52:33;6.70;;;2.90;;
4486;SDS011;2256;48.740;9.106;2023-04-15T03:55:00;3.50;;;2.72;;
4486;SDS011;2256;48.740;9.106;2023-04-15T03:57:27;10.85;;;2.72;;
4486;SDS011;2256;48.740;9.106;2023-04-15T03:59:55;25.23;;;2.83;;
4486;SDS011;2256;48.740;9.106;2023-04-15T04:02:22;11.55;;;2.75;;
4486;SDS011;2256;48.740;9.106;2023-04-15T04:04:49;4.68;;;2.85;;
4486;SDS011;2256;48.740;9.106;2023-04-15T04:07:16;9.73;;;2.95;;
4486;SDS011;2256;48.740;9.106;2023-04-15T04:09:43;5.63;;;2.45;;
4486;SDS011;2256;48.740;9.106;2023-04-15T04:12:10;5.45;;;2.97;;
4486;SDS011;2256;48.740;9.106;2023-04-15T04:14:37;10.75;;;3.15;;
4486;SDS011;2256;48.740;9.106;2023-04-15T04:17:05;15.35;;;3.60;;
4486;SDS011;2256;48.740;9.106;2023-04-15T04:19:32;10.18;;;2.95;;
4486;SDS011;2256;48.740;9.106;2023-04-15T04:21:59;6.53;;;3.03;;
4486;SDS011;2256;48.740;9.106;2023-04-15T04:24:26;15.10;;;3.90;;
4486;SDS011;2256;48.740;9.106;2023-04-15T04:26:52;6.70;;;3.03;;
4486;SDS011;2256;48.740;9.106;2023-04-15T04:29:21;5.88;;;3.10;;
4486;SDS011;2256;48.740;9.106;2023-04-15T04:31:48;12.23;;;3.35;;
4486;SDS011;2256;48.740;9.106;2023-04-15T04:34:16;2.75;;;2.28;;
4486;SDS011;2256;48.740;9.106;2023-04-15T04:36:43;7.07;;;3.20;;
4486;SDS011;2256;48.740;9.106;2023-04-15T04:39:10;8.20;;;3.15;;
4486;SDS011;2256;48.740;9.106;2023-04-15T04:41:37;11.82;;;3.20;;
4486;SDS011;2256;48.740;9.106;2023-04-15T04:44:04;9.93;;;3.50;;
4486;SDS011;2256;48.740;9.106;2023-04-15T04:46:31;5.70;;;3.00;;
4486;SDS011;2256;48.740;9.106;2023-04-15T04:48:57;6.25;;;2.63;;
4486;SDS011;2256;48.740;9.106;2023-04-15T04:51:26;8.15;;;4.28;;
4486;SDS011;2256;48.740;9.106;2023-04-15T04:53:53;6.63;;;3.33;;
4486;SDS011;2256;48.740;9.106;2023-04-15T04:56:20;10.52;;;2.80;;
4486;SDS011;2256;48.740;9.106;2023-04-15T04:58:47;29.58;;;3.60;;
4486;SDS011;2256;48.740;9.106;2023-04-15T05:01:14;11.45;;;2.90;;
4486;SDS011;2256;48.740;9.106;2023-04-15T05:03:41;7.28;;;3.08;;
4486;SDS011;2256;48.740;9.106;2023-04-15T05:06:08;11.65;;;3.08;;
4486;SDS011;2256;48.740;9.106;2023-04-15T05:08:36;10.80;;;3.47;;
4486;SDS011;2256;48.740;9.106;2023-04-15T05:11:04;5.50;;;2.85;;
4486;SDS011;2256;48.740;9.106;2023-04-15T05:13:31;7.03;;;3.10;;
4486;SDS011;2256;48.740;9.106;2023-04-15T05:15:58;8.30;;;2.88;;
4486;SDS011;2256;48.740;9.106;2023-04-15T05:18:25;8.20;;;3.00;;
4486;SDS011;2256;48.740;9.106;2023-04-15T05:20:52;20.65;;;3.70;;
4486;SDS011;2256;48.740;9.106;2023-04-15T05:23:19;6.68;;;2.25;;
4486;SDS011;2256;48.740;9.106;2023-04-15T05:25:47;3.10;;;2.40;;
4486;SDS011;2256;48.740;9.106;2023-04-15T05:28:14;3.38;;;2.50;;
4486;SDS011;2256;48.740;9.106;2023-04-15T05:30:41;12.73;;;3.00;;
4486;SDS011;2256;48.740;9.106;2023-04-15T05:33:08;4.20;;;2.17;;
4486;SDS011;2256;48.740;9.106;2023-04-15T05:35:35;3.65;;;2.60;;
4486;SDS011;2256;48.740;9.106;2023-04-15T05:38:01;3.22;;;2.42;;
4486;SDS011;2256;48.740;9.106;2023-04-15T05:40:29;10.98;;;2.88;;
4486;SDS011;2256;48.740;9.106;2023-04-15T05:42:57;6.75;;;3.00;;
4486;SDS011;2256;48.740;9.106;2023-04-15T05:45:24;5.22;;;2.15;;
4486;SDS011;2256;48.740;9.106;2023-04-15T05:47:51;7.15;;;3.90;;
4486;SDS011;2256;48.740;9.106;2023-04-15T05:50:18;8.05;;;2.38;;
4486;SDS011;2256;48.740;9.106;2023-04-15T05:52:45;8.27;;;2.20;;
4486;SDS011;2256;48.740;9.106;2023-04-15T05:55:12;5.22;;;2.30;;
4486;SDS011;2256;48.740;9.106;2023-04-15T05:57:41;4.65;;;2.35;;
4486;SDS011;2256;48.740;9.106;2023-04-15T06:00:10;5.88;;;2.33;;
4486;SDS011;2256;48.740;9.106;2023-04-15T06:02:37;5.40;;;2.30;;
4486;SDS011;2256;48.740;9.106;2023-04-15T06:05:04;10.75;;;2.20;;
4486;SDS011;2256;48.740;9.106;2023-04-15T06:07:33;4.90;;;2.33;;
4486;SDS011;2256;48.740;9.106;2023-04-15T06:10:01;7.00;;;2.40;;
4486;SDS011;2256;48.740;9.106;2023-04-15T06:12:27;5.10;;;2.00;;
4486;SDS011;2256;48.740;9.106;2023-04-15T06:14:54;5.50;;;2.23;;
4486;SDS011;2256;48.740;9.106;2023-04-15T06:17:23;4.47;;;2.00;;
4486;SDS011;2256;48.740;9.106;2023-04-15T06:19:50;13.40;;;2.17;;
4486;SDS011;2256;48.740;9.106;2023-04-15T06:22:19;10.97;;;2.07;;
4486;SDS011;2256;48.740;9.106;2023-04-15T06:24:47;5.67;;;1.97;;
4486;SDS011;2256;48.740;9.106;2023-04-15T06:27:14;7.23;;;2.20;;
4486;SDS011;2256;48.740;9.106;2023-04-15T06:29:41;9.20;;;2.37;;
4486;SDS011;2256;48.740;9.106;2023-04-15T06:32:08;5.43;;;2.27;;
4486;SDS011;2256;48.740;9.106;2023-04-15T06:34:36;10.03;;;2.50;;
4486;SDS011;2256;48.740;9.106;2023-04-15T06:37:03;8.97;;;3.03;;
4486;SDS011;2256;48.740;9.106;2023-04-15T06:39:30;8.13;;;1.90;;
4486;SDS011;2256;48.740;9.106;2023-04-15T06:41:56;6.63;;;1.83;;
4486;SDS011;2256;48.740;9.106;2023-04-15T06:44:23;5.17;;;2.40;;
4486;SDS011;2256;48.740;9.106;2023-04-15T06:46:50;6.40;;;1.83;;
4486;SDS011;2256;48.740;9.106;2023-04-15T06:49:17;7.27;;;1.90;;
4486;SDS011;2256;48.740;9.106;2023-04-15T06:51:45;6.30;;;1.97;;
4486;SDS011;2256;48.740;9.106;2023-04-15T06:54:12;4.87;;;2.17;;
4486;SDS011;2256;48.740;9.106;2023-04-15T06:56:39;12.03;;;2.00;;
4486;SDS011;2256;48.740;9.106;2023-04-15T06:59:06;11.57;;;2.23;;
4486;SDS011;2256;48.740;9.106;2023-04-15T07:01:32;4.17;;;1.67;;
4486;SDS011;2256;48.740;9.106;2023-04-15T07:03:59;5.30;;;2.10;;
4486;SDS011;2256;48.740;9.106;2023-04-15T07:06:26;6.00;;;2.30;;
4486;SDS011;2256;48.740;9.106;2023-04-15T07:08:54;4.53;;;1.90;;
4486;SDS011;2256;48.740;9.106;2023-04-15T07:11:21;3.80;;;1.70;;
4486;SDS011;2256;48.740;9.106;2023-04-15T07:13:48;3.07;;;1.97;;
4486;SDS011;2256;48.740;9.106;2023-04-15T07:16:15;3.70;;;2.23;;
4486;SDS011;2256;48.740;9.106;2023-04-15T07:18:42;7.87;;;3.17;;
4486;SDS011;2256;48.740;9.106;2023-04-15T07:21:09;6.93;;;3.60;;
4486;SDS011;2256;48.740;9.106;2023-04-15T07:23:36;10.23;;;3.13;;
4486;SDS011;2256;48.740;9.106;2023-04-15T07:26:04;7.87;;;3.50;;
4486;SDS011;2256;48.740;9.106;2023-04-15T07:28:31;12.40;;;4.13;;
4486;SDS011;2256;48.740;9.106;2023-04-15T07:30:58;4.17;;;2.70;;
4486;SDS011;2256;48.740;9.106;2023-04-15T07:33:25;4.00;;;2.60;;
4486;SDS011;2256;48.740;9.106;2023-04-15T07:35:52;5.97;;;2.97;;
4486;SDS011;2256;48.740;9.106;2023-04-15T07:38:18;6.37;;;3.00;;
4486;SDS011;2256;48.740;9.106;2023-04-15T07:40:45;3.60;;;2.40;;
4486;SDS011;2256;48.740;9.106;2023-04-15T07:43:13;8.10;;;2.40;;
4486;SDS011;2256;48.740;9.106;2023-04-15T07:45:40;5.40;;;2.13;;
4486;SDS011;2256;48.740;9.106;2023-04-15T07:48:07;8.63;;;2.63;;
4486;SDS011;2256;48.740;9.106;2023-04-15T07:50:34;5.10;;;2.37;;
4486;SDS011;2256;48.740;9.106;2023-04-15T07:53:01;7.33;;;2.10;;
4486;SDS011;2256;48.740;9.106;2023-04-15T07:55:27;10.70;;;2.37;;
4486;SDS011;2256;48.740;9.106;2023-04-15T07:57:54;5.40;;;2.23;;
4486;SDS011;2256;48.740;9.106;2023-04-15T08:00:23;6.10;;;3.00;;
4486;SDS011;2256;48.740;9.106;2023-04-15T08:02:50;3.40;;;2.10;;
4486;SDS011;2256;48.740;9.106;2023-04-15T08:05:18;6.43;;;2.63;;
4486;SDS011;2256;48.740;9.106;2023-04-15T08:07:45;7.27;;;2.37;;
4486;SDS011;2256;48.740;9.106;2023-04-15T08:10:12;4.40;;;3.13;;
4486;SDS011;2256;48.740;9.106;2023-04-15T08:12:40;5.70;;;3.50;;
4486;SDS011;2256;48.740;9.106;2023-04-15T08:15:07;10.70;;;3.77;;
4486;SDS011;2256;48.740;9.106;2023-04-15T08:17:36;5.43;;;3.20;;
4486;SDS011;2256;48.740;9.106;2023-04-15T08:20:02;6.63;;;3.27;;
4486;SDS011;2256;48.740;9.106;2023-04-15T08:22:30;5.97;;;3.40;;
4486;SDS011;2256;48.740;9.106;2023-04-15T08:24:57;24.03;;;3.60;;
4486;SDS011;2256;48.740;9.106;2023-04-15T08:27:24;7.17;;;3.43;;
4486;SDS011;2256;48.740;9.106;2023-04-15T08:29:51;3.73;;;2.27;;
4486;SDS011;2256;48.740;9.106;2023-04-15T08:32:18;6.30;;;2.40;;
4486;SDS011;2256;48.740;9.106;2023-04-15T08:34:46;6.33;;;2.70;;
4486;SDS011;2256;48.740;9.106;2023-04-15T08:37:13;7.40;;;1.80;;
4486;SDS011;2256;48.740;9.106;2023-04-15T08:39:39;6.43;;;1.70;;
4486;SDS011;2256;48.740;9.106;2023-04-15T08:42:07;5.43;;;2.23;;
4486;SDS011;2256;48.740;9.106;2023-04-15T08:44:41;6.50;;;2.30;;
4486;SDS011;2256;48.740;9.106;2023-04-15T08:47:08;3.50;;;1.83;;
4486;SDS011;2256;48.740;9.106;2023-04-15T08:49:39;2.70;;;2.00;;
4486;SDS011;2256;48.740;9.106;2023-04-15T08:52:09;9.20;;;2.17;;
4486;SDS011;2256;48.740;9.106;2023-04-15T08:54:36;5.80;;;1.80;;
4486;SDS011;2256;48.740;9.106;2023-04-15T08:57:03;3.57;;;2.30;;
4486;SDS011;2256;48.740;9.106;2023-04-15T08:59:31;2.10;;;1.40;;
4486;SDS011;2256;48.740;9.106;2023-04-15T09:01:58;3.17;;;1.80;;
4486;SDS011;2256;48.740;9.106;2023-04-15T09:04:25;4.70;;;2.27;;
4486;SDS011;2256;48.740;9.106;2023-04-15T09:06:53;3.70;;;1.87;;
4486;SDS011;2256;48.740;9.106;2023-04-15T09:09:21;2.67;;;2.20;;
4486;SDS011;2256;48.740;9.106;2023-04-15T09:11:47;5.07;;;2.13;;
4486;SDS011;2256;48.740;9.106;2023-04-15T09:14:15;6.50;;;2.47;;
4486;SDS011;2256;48.740;9.106;2023-04-15T09:16:55;4.80;;;2.80;;
4486;SDS011;2256;48.740;9.106;2023-04-15T09:19:22;9.33;;;2.20;;
4486;SDS011;2256;48.740;9.106;2023-04-15T09:21:50;4.30;;;1.97;;
4486;SDS011;2256;48.740;9.106;2023-04-15T09:24:18;4.50;;;2.10;;
4486;SDS011;2256;48.740;9.106;2023-04-15T09:26:46;6.53;;;2.10;;
4486;SDS011;2256;48.740;9.106;2023-04-15T09:29:17;3.20;;;2.17;;
4486;SDS011;2256;48.740;9.106;2023-04-15T09:31:43;5.73;;;2.33;;
4486;SDS011;2256;48.740;9.106;2023-04-15T09:34:11;3.80;;;2.57;;
4486;SDS011;2256;48.740;9.106;2023-04-15T09:36:40;7.30;;;2.63;;
4486;SDS011;2256;48.740;9.106;2023-04-15T09:39:18;8.63;;;2.30;;
4486;SDS011;2256;48.740;9.106;2023-04-15T09:41:47;5.43;;;2.67;;
4486;SDS011;2256;48.740;9.106;2023-04-15T09:44:30;6.80;;;2.30;;
4486;SDS011;2256;48.740;9.106;2023-04-15T09:46:56;10.37;;;3.57;;
4486;SDS011;2256;48.740;9.106;2023-04-15T09:49:23;11.00;;;2.97;;
4486;SDS011;2256;48.740;9.106;2023-04-15T09:51:50;12.90;;;2.77;;
4486;SDS011;2256;48.740;9.106;2023-04-15T09:54:17;6.27;;;2.60;;
4486;SDS011;2256;48.740;9.106;2023-04-15T09:56:46;5.20;;;2.17;;
4486;SDS011;2256;48.740;9.106;2023-04-15T09:59:13;5.70;;;2.30;;
4486;SDS011;2256;48.740;9.106;2023-04-15T10:01:40;4.90;;;2.47;;
4486;SDS011;2256;48.740;9.106;2023-04-15T10:04:08;3.03;;;2.30;;
4486;SDS011;2256;48.740;9.106;2023-04-15T10:06:35;3.83;;;2.50;;
4486;SDS011;2256;48.740;9.106;2023-04-15T10:09:02;6.43;;;2.73;;
4486;SDS011;2256;48.740;9.106;2023-04-15T10:11:30;9.70;;;2.30;;
4486;SDS011;2256;48.740;9.106;2023-04-15T10:14:00;4.93;;;2.40;;
4486;SDS011;2256;48.740;9.106;2023-04-15T10:16:27;2.93;;;2.40;;
4486;SDS011;2256;48.740;9.106;2023-04-15T10:18:54;6.03;;;2.70;;
4486;SDS011;2256;48.740;9.106;2023-04-15T10:21:22;7.60;;;2.80;;
4486;SDS011;2256;48.740;9.106;2023-04-15T10:23:49;3.03;;;2.30;;
4486;SDS011;2256;48.740;9.106;2023-04-15T10:26:16;7.70;;;2.47;;
4486;SDS011;2256;48.740;9.106;2023-04-15T10:28:43;8.13;;;3.20;;
4486;SDS011;2256;48.740;9.106;2023-04-15T10:31:13;5.83;;;2.90;;
4486;SDS011;2256;48.740;9.106;2023-04-15T10:33:41;4.73;;;2.97;;
4486;SDS011;2256;48.740;9.106;2023-04-15T10:36:09;6.73;;;3.80;;
4486;SDS011;2256;48.740;9.106;2023-04-15T10:38:37;4.67;;;2.53;;
4486;SDS011;2256;48.740;9.106;2023-04-15T10:41:14;16.80;;;3.20;;
4486;SDS011;2256;48.740;9.106;2023-04-15T10:43:50;8.23;;;2.63;;
4486;SDS011;2256;48.740;9.106;2023-04-15T10:46:19;4.53;;;2.00;;
4486;SDS011;2256;48.740;9.106;2023-04-15T10:48:48;6.63;;;2.87;;
4486;SDS011;2256;48.740;9.106;2023-04-15T10:51:19;6.00;;;2.50;;
4486;SDS011;2256;48.740;9.106;2023-04-15T10:53:55;4.10;;;2.83;;
4486;SDS011;2256;48.740;9.106;2023-04-15T10:56:23;6.70;;;3.40;;
4486;SDS011;2256;48.740;9.106;2023-04-15T10:58:51;7.00;;;3.70;;
4486;SDS011;2256;48.740;9.106;2023-04-15T11:01:19;4.43;;;2.90;;
4486;SDS011;2256;48.740;9.106;2023-04-15T11:03:50;8.17;;;2.87;;
4486;SDS011;2256;48.740;9.106;2023-04-15T11:06:17;12.37;;;3.33;;
4486;SDS011;2256;48.740;9.106;2023-04-15T11:08:55;8.80;;;3.93;;
4486;SDS011;2256;48.740;9.106;2023-04-15T11:14:23;3.47;;;2.77;;
4486;SDS011;2256;48.740;9.106;2023-04-15T11:16:51;10.60;;;3.87;;
4486;SDS011;2256;48.740;9.106;2023-04-15T11:19:18;4.60;;;3.40;;
4486;SDS011;2256;48.740;9.106;2023-04-15T11:21:45;9.37;;;3.27;;
4486;SDS011;2256;48.740;9.106;2023-04-15T11:24:19;10.00;;;3.10;;
4486;SDS011;2256;48.740;9.106;2023-04-15T11:26:55;3.37;;;2.60;;
4486;SDS011;2256;48.740;9.106;2023-04-15T11:29:27;4.50;;;2.60;;
4486;SDS011;2256;48.740;9.106;2023-04-15T11:32:02;6.43;;;2.23;;
4486;SDS011;2256;48.740;9.106;2023-04-15T11:34:31;11.80;;;2.20;;
4486;SDS011;2256;48.740;9.106;2023-04-15T11:36:59;4.83;;;2.80;;
4486;SDS011;2256;48.740;9.106;2023-04-15T11:39:29;9.40;;;2.90;;
4486;SDS011;2256;48.740;9.106;2023-04-15T11:41:56;7.57;;;2.50;;
4486;SDS011;2256;48.740;9.106;2023-04-15T11:44:23;7.07;;;2.73;;
4486;SDS011;2256;48.740;9.106;2023-04-15T11:46:49;16.63;;;4.17;;
4486;SDS011;2256;48.740;9.106;2023-04-15T11:49:28;7.10;;;3.03;;
4486;SDS011;2256;48.740;9.106;2023-04-15T11:51:57;4.90;;;2.53;;
4486;SDS011;2256;48.740;9.106;2023-04-15T11:54:25;7.43;;;2.97;;
4486;SDS011;2256;48.740;9.106;2023-04-15T11:56:52;4.70;;;2.40;;
4486;SDS011;2256;48.740;9.106;2023-04-15T11:59:18;3.50;;;2.40;;
4486;SDS011;2256;48.740;9.106;2023-04-15T12:01:45;4.20;;;2.47;;
4486;SDS011;2256;48.740;9.106;2023-04-15T12:04:12;3.63;;;2.80;;
4486;SDS011;2256;48.740;9.106;2023-04-15T12:06:43;4.17;;;2.53;;
4486;SDS011;2256;48.740;9.106;2023-04-15T12:09:11;5.60;;;2.50;;
4486;SDS011;2256;48.740;9.106;2023-04-15T12:11:40;6.80;;;3.93;;
4486;SDS011;2256;48.740;9.106;2023-04-15T12:14:10;6.77;;;4.33;;
4486;SDS011;2256;48.740;9.106;2023-04-15T12:16:39;7.87;;;2.90;;
4486;SDS011;2256;48.740;9.106;2023-04-15T12:19:08;4.70;;;2.47;;
4486;SDS011;2256;48.740;9.106;2023-04-15T12:21:38;8.43;;;2.23;;
4486;SDS011;2256;48.740;9.106;2023-04-15T12:24:08;8.70;;;3.10;;
4486;SDS011;2256;48.740;9.106;2023-04-15T12:26:36;4.47;;;2.80;;
4486;SDS011;2256;48.740;9.106;2023-04-15T12:29:10;5.37;;;3.17;;
4486;SDS011;2256;48.740;9.106;2023-04-15T12:31:45;6.33;;;3.20;;
4486;SDS011;2256;48.740;9.106;2023-04-15T12:34:15;12.50;;;3.20;;
4486;SDS011;2256;48.740;9.106;2023-04-15T12:36:42;15.30;;;3.43;;
4486;SDS011;2256;48.740;9.106;2023-04-15T12:39:11;7.13;;;2.90;;
4486;SDS011;2256;48.740;9.106;2023-04-15T12:41:39;4.77;;;2.90;;
4486;SDS011;2256;48.740;9.106;2023-04-15T12:44:06;5.37;;;2.83;;
4486;SDS011;2256;48.740;9.106;2023-04-15T12:46:33;3.87;;;2.80;;
4486;SDS011;2256;48.740;9.106;2023-04-15T12:49:00;6.77;;;3.10;;
4486;SDS011;2256;48.740;9.106;2023-04-15T12:51:27;3.97;;;2.50;;
4486;SDS011;2256;48.740;9.106;2023-04-15T12:53:54;5.43;;;2.57;;
4486;SDS011;2256;48.740;9.106;2023-04-15T12:56:22;5.77;;;2.53;;
4486;SDS011;2256;48.740;9.106;2023-04-15T12:58:49;4.27;;;3.17;;
4486;SDS011;2256;48.740;9.106;2023-04-15T13:01:16;4.57;;;2.70;;
4486;SDS011;2256;48.740;9.106;2023-04-15T13:03:43;19.13;;;4.40;;
4486;SDS011;2256;48.740;9.106;2023-04-15T13:06:10;7.40;;;3.57;;
4486;SDS011;2256;48.740;9.106;2023-04-15T13:08:37;4.30;;;2.90;;
4486;SDS011;2256;48.740;9.106;2023-04-15T13:11:04;3.77;;;2.50;;
4486;SDS011;2256;48.740;9.106;2023-04-15T13:13:32;6.03;;;2.70;;
4486;SDS011;2256;48.740;9.106;2023-04-15T13:16:00;2.73;;;2.30;;
4486;SDS011;2256;48.740;9.106;2023-04-15T13:18:28;2.93;;;2.60;;
4486;SDS011;2256;48.740;9.106;2023-04-15T13:20:55;10.10;;;2.63;;
4486;SDS011;2256;48.740;9.106;2023-04-15T13:23:22;4.80;;;3.03;;
4486;SDS011;2256;48.740;9.106;2023-04-15T13:25:49;8.83;;;3.10;;
4486;SDS011;2256;48.740;9.106;2023-04-15T13:28:16;4.27;;;2.70;;
4486;SDS011;2256;48.740;9.106;2023-04-15T13:30:44;3.27;;;2.50;;
4486;SDS011;2256;48.740;9.106;2023-04-15T13:33:12;5.90;;;2.53;;
4486;SDS011;2256;48.740;9.106;2023-04-15T13:35:40;7.53;;;2.87;;
4486;SDS011;2256;48.740;9.106;2023-04-15T13:38:08;4.47;;;1.93;;
4486;SDS011;2256;48.740;9.106;2023-04-15T13:40:35;5.17;;;2.67;;
4486;SDS011;2256;48.740;9.106;2023-04-15T13:43:01;4.23;;;2.27;;
4486;SDS011;2256;48.740;9.106;2023-04-15T13:45:28;6.07;;;2.27;;
4486;SDS011;2256;48.740;9.106;2023-04-15T13:47:57;5.23;;;2.30;;
4486;SDS011;2256;48.740;9.106;2023-04-15T13:50:23;7.10;;;2.30;;
4486;SDS011;2256;48.740;9.106;2023-04-15T13:52:50;2.40;;;1.50;;
4486;SDS011;2256;48.740;9.106;2023-04-15T13:55:17;3.17;;;2.00;;
4486;SDS011;2256;48.740;9.106;2023-04-15T13:57:44;2.13;;;1.83;;
4486;SDS011;2256;48.740;9.106;2023-04-15T14:00:11;2.00;;;1.80;;
4486;SDS011;2256;48.740;9.106;2023-04-15T14:02:39;2.27;;;2.10;;
4486;SDS011;2256;48.740;9.106;2023-04-15T14:05:09;3.00;;;2.17;;
4486;SDS011;2256;48.740;9.106;2023-04-15T14:07:36;3.07;;;1.80;;
4486;SDS011;2256;48.740;9.106;2023-04-15T14:10:03;1.40;;;1.23;;
4486;SDS011;2256;48.740;9.106;2023-04-15T14:12:30;2.53;;;1.50;;
4486;SDS011;2256;48.740;9.106;2023-04-15T14:14:57;4.87;;;2.00;;
4486;SDS011;2256;48.740;9.106;2023-04-15T14:17:25;3.70;;;1.33;;
4486;SDS011;2256;48.740;9.106;2023-04-15T14:19:52;11.50;;;1.70;;
4486;SDS011;2256;48.740;9.106;2023-04-15T14:22:21;3.47;;;1.50;;
4486;SDS011;2256;48.740;9.106;2023-04-15T14:24:47;0.90;;;0.90;;
4486;SDS011;2256;48.740;9.106;2023-04-15T14:27:17;6.13;;;1.10;;
4486;SDS011;2256;48.740;9.106;2023-04-15T14:29:44;1.17;;;1.10;;
4486;SDS011;2256;48.740;9.106;2023-04-15T14:32:11;2.40;;;1.10;;
4486;SDS011;2256;48.740;9.106;2023-04-15T14:34:38;2.40;;;1.50;;
4486;SDS011;2256;48.740;9.106;2023-04-15T14:37:05;2.63;;;1.50;;
4486;SDS011;2256;48.740;9.106;2023-04-15T14:39:34;4.10;;;1.27;;
4486;SDS011;2256;48.740;9.106;2023-04-15T14:42:01;2.60;;;1.80;;
4486;SDS011;2256;48.740;9.106;2023-04-15T14:44:28;2.20;;;1.70;;
4486;SDS011;2256;48.740;9.106;2023-04-15T14:46:54;6.77;;;2.20;;
4486;SDS011;2256;48.740;9.106;2023-04-15T14:49:22;6.80;;;2.23;;
4486;SDS011;2256;48.740;9.106;2023-04-15T14:51:50;2.77;;;1.90;;
4486;SDS011;2256;48.740;9.106;2023-04-15T14:54:17;6.83;;;2.20;;
4486;SDS011;2256;48.740;9.106;2023-04-15T14:56:45;5.20;;;2.10;;
4486;SDS011;2256;48.740;9.106;2023-04-15T14:59:14;3.33;;;2.30;;
4486;SDS011;2256;48.740;9.106;2023-04-15T15:01:42;4.90;;;2.40;;
4486;SDS011;2256;48.740;9.106;2023-04-15T15:04:09;6.23;;;2.40;;
4486;SDS011;2256;48.740;9.106;2023-04-15T15:06:37;4.13;;;2.40;;
4486;SDS011;2256;48.740;9.106;2023-04-15T15:09:04;6.30;;;2.53;;
4486;SDS011;2256;48.740;9.106;2023-04-15T15:11:31;4.57;;;2.17;;
4486;SDS011;2256;48.740;9.106;2023-04-15T15:13:59;6.47;;;2.60;;
4486;SDS011;2256;48.740;9.106;2023-04-15T15:16:29;4.93;;;2.23;;
4486;SDS011;2256;48.740;9.106;2023-04-15T15:18:56;7.00;;;2.57;;